This is the latest recevied weather packets stored in our database for station/object N2UFM. If no packets are shown the sender has not sent any weather packets the latest 1 day(s).
| Time | Temp. | Humidity | Pressure | Rain* | Wind** | Luminosity | Snow |
|---|---|---|---|---|---|---|---|
| 1778081411 | 21.67° C | 64% | 1010.2 hPa | 0 mm | - | - | - |
| 1778081111 | 21.67° C | 65% | 1010.1 hPa | 0 mm | - | - | - |
| 1778080811 | 21.67° C | 64% | 1010.1 hPa | 0 mm | - | - | - |
| 1778079310 | 22.22° C | 63% | 1010.5 hPa | 0 mm | - | - | - |
| 1778079010 | 22.78° C | 62% | 1010.5 hPa | 0 mm | - | - | - |
| 1778076909 | 21.67° C | 65% | 1010.2 hPa | 0 mm | - | - | - |
| 1778075408 | 21.67° C | 66% | 1010.5 hPa | 0 mm | - | - | - |
| 1778075108 | 21.67° C | 66% | 1010.4 hPa | 0 mm | - | - | - |
| 1778073907 | 21.67° C | 68% | 1010.6 hPa | 0 mm | - | - | - |
| 1778073307 | 21.11° C | 69% | 1010.8 hPa | 0 mm | - | - | - |
| 1778071506 | 20° C | 73% | 1010.7 hPa | 0 mm | - | - | - |
| 1778071206 | 19.44° C | 73% | 1010.7 hPa | 0 mm | - | - | - |
| 1778069705 | 19.44° C | 73% | 1010.8 hPa | 0 mm | - | - | - |
| 1778069405 | 19.44° C | 73% | 1010.8 hPa | 0 mm | - | - | - |
| 1778067904 | 20° C | 73% | 1010.8 hPa | 0 mm | - | - | - |
| 1778067604 | 19.44° C | 74% | 1011.1 hPa | 0 mm | - | - | - |
| 1778063702 | 17.22° C | 81% | 1011 hPa | 0 mm | - | - | - |
| 1778063402 | 17.22° C | 81% | 1011 hPa | 0 mm | - | - | - |
| 1778061901 | 17.22° C | 82% | 1010.8 hPa | 0 mm | - | - | - |
| 1778061602 | 17.22° C | 82% | 1010.8 hPa | 0 mm | - | - | - |
| 1778061301 | 17.22° C | 82% | 1010.7 hPa | 0 mm | - | - | - |
| 1778061001 | 17.22° C | 82% | 1010.7 hPa | 0 mm | - | - | - |
| 1778059800 | 17.22° C | 82% | 1010.8 hPa | 0 mm | - | - | - |
| 1778059500 | 17.22° C | 82% | 1010.9 hPa | 0 mm | - | - | - |
| 1778059200 | 17.22° C | 82% | 1010.9 hPa | 0 mm | - | - | - |
* Rain latest hour (hover to see other rain measurements)
** Current wind speed in m/s (hover to see current wind gust speed)